Estación Meteorológica Peña el Pijo (Robertgarden) [ 02/03/23 03:59:01 CET ]

Fecha Hora Presion(HPa) Temp (°C) Humedad % Rocio (°C) Viento ( m/s) Direccion Lluvia 1Hora(mm) Lluvia 24H(mm) LLuvia Total(mm)
2010-Mar-28 01:01:11 1016.100 3.9 81 1.0         104.63
2010-Mar-28 03:03:14 1015.500 3.0 83 0.4         104.63
2010-Mar-28 04:01:12 1014.900 2.4 84 -0.1         104.63
2010-Mar-28 05:01:14 1014.800 1.9 85 -0.4         104.63
2010-Mar-28 06:01:12 1014.400 2.0 86 -0.1         104.63
2010-Mar-28 07:01:17 1014.200 1.9 86 -0.2         104.63
2010-Mar-28 08:01:14 1014.200 1.8 87 -0.2         104.63
2010-Mar-28 09:01:17 1014.200 3.0 88 1.2         104.63
2010-Mar-28 10:01:13 1013.900 7.8 79 4.4         104.63
2010-Mar-28 11:01:14 1013.400 13.0 55 4.1         104.63
2010-Mar-28 12:01:12 1012.900 18.9 44 6.3         104.63
2010-Mar-28 13:01:11 1012.300 22.2 33 5.1         104.63
2010-Mar-28 14:01:13 1011.400 23.8 28 4.1 3.1 NE     104.63
2010-Mar-28 15:01:16 1010.600 23.1 30 4.6         104.63
2010-Mar-28 16:01:18 1009.800 22.5 31 4.5         104.63
2010-Mar-28 17:01:11 1009.400 23.3 32 5.6 2.6 N     104.63
2010-Mar-28 18:01:14 1009.200 20.9 36 5.2         104.63
2010-Mar-28 19:01:14 1009.100 19.6 37 4.4         104.63
2010-Mar-28 20:01:13 1009.000 17.0 46 5.2         104.63
2010-Mar-28 21:01:13 1009.400 13.9 55 5.0         104.63
2010-Mar-28 22:01:13 1009.800 10.5 66 4.4         104.63
2010-Mar-28 23:01:13 1010.200 8.6 72 3.8         104.63

Temperatura Máxima:23°    Temperatura Mínima:
Presión Máxima:1016.100 Hpa    Presión Mínima:1009.000 Hpa


Volver